createdAt,value
2023-05-11T00:01:05.611Z,46.57
2023-05-11T00:03:34.119Z,46.62
2023-05-11T00:06:04.897Z,46.72
2023-05-11T00:08:41.332Z,46.63
2023-05-11T00:11:10.040Z,46.72
2023-05-11T00:13:38.338Z,46.71
2023-05-11T00:16:07.440Z,46.76
2023-05-11T00:18:35.875Z,46.72
2023-05-11T00:21:06.418Z,46.72
2023-05-11T00:23:38.441Z,46.70
2023-05-11T00:26:07.430Z,46.76
2023-05-11T00:28:39.473Z,46.82
2023-05-11T00:31:11.264Z,46.87
2023-05-11T00:33:59.052Z,46.86
2023-05-11T00:36:30.780Z,46.88
2023-05-11T00:39:04.473Z,46.87
2023-05-11T00:41:49.216Z,46.90
2023-05-11T00:44:20.864Z,46.88
2023-05-11T00:46:55.272Z,46.97
2023-05-11T00:49:24.052Z,46.92
2023-05-11T00:51:57.883Z,46.98
2023-05-11T00:54:27.797Z,47.02
2023-05-11T00:56:58.848Z,47.00
2023-05-11T00:59:31.849Z,46.94
2023-05-11T01:02:04.626Z,47.03
2023-05-11T01:04:38.964Z,47.03
2023-05-11T01:07:19.698Z,47.21
2023-05-11T01:10:16.592Z,47.30
2023-05-11T01:13:07.603Z,47.34
2023-05-11T01:15:56.639Z,47.30
2023-05-11T01:18:31.425Z,47.44
2023-05-11T01:21:08.919Z,47.52
2023-05-11T01:23:54.348Z,47.41
2023-05-11T01:26:33.792Z,47.44
2023-05-11T01:29:32.606Z,47.45
2023-05-11T01:32:18.430Z,47.43
2023-05-11T01:34:56.295Z,47.49
2023-05-11T01:37:31.667Z,47.47
2023-05-11T01:40:03.616Z,47.53
2023-05-11T01:42:55.131Z,47.50
2023-05-11T01:45:31.180Z,47.52
2023-05-11T01:48:10.193Z,47.48
2023-05-11T01:50:39.570Z,47.52
2023-05-11T01:53:23.854Z,47.60
2023-05-11T01:55:58.615Z,47.62
2023-05-11T01:58:33.085Z,47.63
2023-05-11T02:01:14.108Z,47.57
2023-05-11T02:03:48.614Z,47.62
2023-05-11T02:06:22.757Z,47.62
2023-05-11T02:08:56.930Z,47.63
2023-05-11T02:11:39.706Z,47.71
2023-05-11T02:14:28.473Z,47.63
2023-05-11T02:17:13.835Z,47.59
2023-05-11T02:20:08.372Z,47.62
2023-05-11T02:22:41.974Z,47.75
2023-05-11T02:25:22.689Z,47.68
2023-05-11T02:27:53.469Z,47.74
2023-05-11T02:30:36.121Z,47.59
2023-05-11T02:33:48.948Z,47.65
2023-05-11T02:36:22.556Z,47.72
2023-05-11T02:39:07.137Z,47.68
2023-05-11T02:41:46.933Z,47.74
2023-05-11T02:44:31.837Z,47.76
2023-05-11T02:47:06.430Z,47.74
2023-05-11T02:49:50.478Z,47.80
2023-05-11T02:52:21.654Z,47.80
2023-05-11T02:55:17.569Z,47.78
2023-05-11T02:58:04.318Z,48.02
2023-05-11T03:00:58.393Z,48.00
2023-05-11T03:03:42.399Z,48.13
2023-05-11T03:06:36.054Z,48.18
2023-05-11T03:09:12.446Z,48.20
2023-05-11T03:12:07.065Z,48.24
2023-05-11T03:14:41.370Z,48.18
2023-05-11T03:17:22.202Z,48.31
2023-05-11T03:19:57.012Z,48.38
2023-05-11T03:22:38.378Z,48.35
2023-05-11T03:25:12.586Z,48.19
2023-05-11T03:27:48.136Z,48.25
2023-05-11T03:30:53.876Z,48.25
2023-05-11T03:33:42.950Z,48.44
2023-05-11T03:36:23.158Z,48.26
2023-05-11T03:38:56.699Z,48.38
2023-05-11T03:41:38.468Z,48.57
2023-05-11T03:44:14.324Z,48.63
2023-05-11T03:47:23.586Z,48.58
2023-05-11T03:49:53.236Z,48.64
2023-05-11T03:52:32.830Z,48.69
2023-05-11T03:55:09.718Z,48.79
2023-05-11T03:57:49.620Z,48.94
2023-05-11T04:00:27.901Z,48.70
2023-05-11T04:03:23.398Z,48.74
2023-05-11T04:05:59.458Z,48.91
2023-05-11T04:08:28.618Z,49.06
2023-05-11T04:11:19.125Z,49.00
2023-05-11T04:13:53.167Z,48.87
2023-05-11T04:16:48.012Z,48.87
2023-05-11T04:19:22.971Z,49.08
2023-05-11T04:22:01.785Z,49.01
2023-05-11T04:24:40.202Z,48.92
2023-05-11T04:27:35.423Z,49.01
2023-05-11T04:30:23.553Z,49.16
2023-05-11T04:33:06.982Z,49.02
2023-05-11T04:35:45.759Z,49.16
2023-05-11T04:38:17.128Z,49.24
2023-05-11T04:41:06.816Z,49.21
2023-05-11T04:43:48.346Z,49.15
2023-05-11T04:46:22.979Z,49.32
2023-05-11T04:49:06.579Z,49.18
2023-05-11T04:51:42.775Z,49.33
2023-05-11T04:54:21.184Z,49.42
2023-05-11T04:56:54.781Z,49.34
2023-05-11T04:59:52.702Z,49.30
2023-05-11T05:02:31.354Z,49.33
2023-05-11T05:05:22.592Z,49.36
2023-05-11T05:08:04.024Z,49.44
2023-05-11T05:10:41.598Z,49.39
2023-05-11T05:13:31.613Z,49.40
2023-05-11T05:16:14.825Z,49.46
2023-05-11T05:18:46.969Z,49.58
2023-05-11T05:21:39.609Z,49.49
2023-05-11T05:24:12.178Z,49.44
2023-05-11T05:26:46.381Z,49.46
2023-05-11T05:29:35.651Z,49.65
2023-05-11T05:32:17.311Z,49.71
2023-05-11T05:34:47.266Z,49.85
2023-05-11T05:37:21.932Z,49.84
2023-05-11T05:40:20.386Z,49.89
2023-05-11T05:42:55.189Z,49.99
2023-05-11T05:45:39.546Z,50.02
2023-05-11T05:48:09.869Z,50.04
2023-05-11T05:50:39.280Z,50.34
2023-05-11T05:53:24.787Z,50.31
2023-05-11T05:55:59.882Z,50.32
2023-05-11T05:59:00.730Z,50.40
2023-05-11T06:01:35.684Z,50.39
2023-05-11T06:04:07.598Z,50.41
2023-05-11T06:06:40.078Z,50.45
2023-05-11T06:09:12.557Z,50.48
2023-05-11T06:11:56.466Z,50.53
2023-05-11T06:14:41.358Z,50.51
2023-05-11T06:17:10.272Z,50.50
2023-05-11T06:19:51.191Z,50.46
2023-05-11T06:22:26.010Z,50.48
2023-05-11T06:24:59.586Z,50.45
2023-05-11T06:27:32.062Z,50.42
2023-05-11T06:30:06.982Z,50.49
2023-05-11T06:32:37.207Z,50.46
2023-05-11T06:35:18.388Z,50.46
2023-05-11T06:37:52.136Z,50.48
2023-05-11T06:40:29.679Z,50.47
2023-05-11T06:43:10.690Z,50.47
2023-05-11T06:45:59.059Z,50.38
2023-05-11T06:48:31.002Z,50.39
2023-05-11T06:51:04.031Z,50.40
2023-05-11T06:53:32.822Z,50.38
2023-05-11T06:56:01.608Z,50.36
2023-05-11T06:58:33.730Z,50.36
2023-05-11T07:01:06.559Z,50.36
2023-05-11T07:03:40.403Z,50.39
2023-05-11T07:06:09.700Z,50.35
2023-05-11T07:08:42.157Z,50.33
2023-05-11T07:11:13.124Z,50.32
2023-05-11T07:13:42.567Z,50.29
2023-05-11T07:16:12.070Z,50.31
2023-05-11T07:18:43.582Z,50.24
2023-05-11T07:21:12.088Z,50.19
2023-05-11T07:23:40.834Z,50.24
2023-05-11T07:26:14.898Z,50.18
2023-05-11T07:28:46.549Z,50.20
2023-05-11T07:31:15.568Z,50.24
2023-05-11T07:33:47.817Z,50.08
2023-05-11T07:36:17.010Z,50.04
2023-05-11T07:38:46.011Z,50.13
2023-05-11T07:41:19.222Z,50.05
2023-05-11T07:43:48.340Z,50.03
2023-05-11T07:46:17.004Z,49.90
2023-05-11T07:48:48.091Z,49.91
2023-05-11T07:51:16.785Z,49.99
2023-05-11T07:53:45.403Z,49.90
2023-05-11T07:56:15.265Z,49.92
2023-05-11T07:58:44.649Z,49.95
2023-05-11T08:01:13.372Z,49.84
2023-05-11T08:03:42.500Z,49.84
2023-05-11T08:06:13.289Z,49.81
2023-05-11T08:08:42.359Z,49.85
2023-05-11T08:11:14.008Z,49.83
2023-05-11T08:13:42.490Z,49.81
2023-05-11T08:16:12.442Z,49.68
2023-05-11T08:18:41.786Z,49.72
2023-05-11T08:21:10.150Z,49.61
2023-05-11T08:23:39.265Z,49.78
2023-05-11T08:26:08.169Z,49.79
2023-05-11T08:28:38.181Z,49.66
2023-05-11T08:31:07.156Z,49.63
2023-05-11T08:33:38.833Z,49.54
2023-05-11T08:36:09.072Z,49.41
2023-05-11T08:38:37.957Z,49.35
2023-05-11T08:41:07.837Z,49.26
2023-05-11T08:43:36.806Z,49.24
2023-05-11T08:46:07.865Z,49.19
2023-05-11T08:48:36.977Z,49.15
2023-05-11T08:51:05.632Z,49.11
2023-05-11T08:53:34.108Z,49.12
2023-05-11T08:56:05.724Z,49.16
2023-05-11T08:58:39.206Z,49.11
2023-05-11T09:01:08.844Z,49.00
2023-05-11T09:03:39.398Z,48.93
2023-05-11T09:06:09.311Z,48.87
2023-05-11T09:08:37.932Z,48.77
2023-05-11T09:11:06.646Z,48.79
2023-05-11T09:13:35.721Z,48.79
2023-05-11T09:16:04.257Z,48.67
2023-05-11T09:18:32.528Z,48.71
2023-05-11T09:21:02.323Z,48.56
2023-05-11T09:23:32.286Z,48.53
2023-05-11T09:26:01.232Z,48.47
2023-05-11T09:28:36.019Z,48.38
2023-05-11T09:31:04.892Z,48.40
2023-05-11T09:33:33.389Z,48.32
2023-05-11T09:36:03.076Z,48.23
2023-05-11T09:38:32.371Z,48.26
2023-05-11T09:41:03.373Z,48.18
2023-05-11T09:43:32.724Z,48.12
2023-05-11T09:46:05.038Z,48.12
2023-05-11T09:48:35.221Z,47.94
2023-05-11T09:51:05.854Z,47.88
2023-05-11T09:53:46.412Z,47.96
2023-05-11T09:56:16.012Z,47.85
2023-05-11T09:58:46.460Z,47.78
2023-05-11T10:01:15.622Z,47.74
2023-05-11T10:03:48.905Z,47.71
2023-05-11T10:06:20.104Z,47.63
2023-05-11T10:08:50.234Z,47.63
2023-05-11T10:11:24.711Z,47.55
2023-05-11T10:13:54.636Z,47.50
2023-05-11T10:16:22.988Z,47.45
2023-05-11T10:18:52.174Z,47.34
2023-05-11T10:21:21.873Z,47.28
2023-05-11T10:23:50.059Z,47.24
2023-05-11T10:26:18.568Z,47.13
2023-05-11T10:28:47.227Z,47.08
2023-05-11T10:31:23.931Z,46.96
2023-05-11T10:33:53.663Z,46.98
2023-05-11T10:36:23.912Z,46.84
2023-05-11T10:38:55.663Z,46.84
2023-05-11T10:41:28.227Z,46.83
2023-05-11T10:44:14.776Z,46.76
2023-05-11T10:47:01.921Z,46.65
2023-05-11T10:49:44.886Z,46.53
2023-05-11T10:52:26.797Z,46.42
2023-05-11T10:55:06.645Z,46.33
2023-05-11T10:57:38.564Z,46.21
2023-05-11T11:00:31.317Z,46.14
2023-05-11T11:03:09.131Z,46.07
2023-05-11T11:05:38.985Z,45.94
2023-05-11T11:08:09.460Z,45.96
2023-05-11T11:10:39.164Z,45.88
2023-05-11T11:13:08.868Z,45.84
2023-05-11T11:15:55.611Z,45.85
2023-05-11T11:18:25.422Z,45.78
2023-05-11T11:20:55.369Z,45.74
2023-05-11T11:23:42.725Z,45.80
2023-05-11T11:26:15.691Z,45.84
2023-05-11T11:29:16.512Z,45.74
2023-05-11T11:31:44.619Z,45.81
2023-05-11T11:34:45.630Z,45.92
2023-05-11T11:37:15.882Z,45.72
2023-05-11T11:39:46.493Z,45.83
2023-05-11T11:42:16.230Z,45.62
2023-05-11T11:44:45.885Z,45.50
2023-05-11T11:47:14.978Z,45.52
2023-05-11T11:49:48.097Z,45.30
2023-05-11T11:52:28.810Z,45.17
2023-05-11T11:55:00.645Z,45.16
2023-05-11T11:57:30.159Z,45.23
2023-05-11T12:00:02.344Z,45.21
2023-05-11T12:02:44.400Z,45.04
2023-05-11T12:05:14.319Z,45.04
2023-05-11T12:07:45.102Z,45.02
2023-05-11T12:10:14.512Z,45.18
2023-05-11T12:12:46.758Z,45.10
2023-05-11T12:15:28.541Z,45.11
2023-05-11T12:17:56.911Z,45.01
2023-05-11T12:20:26.140Z,44.99
2023-05-11T12:22:55.103Z,44.92
2023-05-11T12:25:23.909Z,44.87
2023-05-11T12:27:55.331Z,44.67
2023-05-11T12:30:26.113Z,44.66
2023-05-11T12:32:57.750Z,44.51
2023-05-11T12:35:28.146Z,44.53
2023-05-11T12:37:57.577Z,44.55
2023-05-11T12:40:27.117Z,44.42
2023-05-11T12:42:56.712Z,44.50
2023-05-11T12:45:25.905Z,44.38
2023-05-11T12:47:55.269Z,44.37
2023-05-11T12:50:23.451Z,44.23
2023-05-11T12:52:51.848Z,44.20
2023-05-11T12:55:28.120Z,44.24
2023-05-11T12:58:10.997Z,44.09
2023-05-11T13:00:55.660Z,44.19
2023-05-11T13:03:26.112Z,44.18
2023-05-11T13:06:09.052Z,44.11
2023-05-11T13:08:39.216Z,43.95
2023-05-11T13:11:25.274Z,43.91
2023-05-11T13:13:54.509Z,43.84
2023-05-11T13:16:24.276Z,43.89
2023-05-11T13:19:03.391Z,43.80
2023-05-11T13:21:33.520Z,43.67
2023-05-11T13:24:04.186Z,43.57
2023-05-11T13:26:32.645Z,43.44
2023-05-11T13:29:10.887Z,43.28
2023-05-11T13:31:46.885Z,43.28
2023-05-11T13:34:16.755Z,43.18
2023-05-11T13:36:45.118Z,43.10
2023-05-11T13:39:13.590Z,42.89
2023-05-11T13:41:41.987Z,42.97
2023-05-11T13:44:10.957Z,42.82
2023-05-11T13:46:39.741Z,42.66
2023-05-11T13:49:08.818Z,42.56
2023-05-11T13:51:37.316Z,42.58
2023-05-11T13:54:05.734Z,42.50
2023-05-11T13:56:34.143Z,42.42
2023-05-11T13:59:02.597Z,42.33
2023-05-11T14:01:31.123Z,42.35
2023-05-11T14:03:59.610Z,41.97
2023-05-11T14:06:28.014Z,41.97
2023-05-11T14:08:57.115Z,41.91
2023-05-11T14:11:26.218Z,41.81
2023-05-11T14:13:54.653Z,41.81
2023-05-11T14:16:23.571Z,41.75
2023-05-11T14:18:52.455Z,41.73
2023-05-11T14:21:21.291Z,41.57
2023-05-11T14:24:06.787Z,41.58
2023-05-11T14:26:38.679Z,41.53
2023-05-11T14:29:07.667Z,41.46
2023-05-11T14:31:37.698Z,41.41
2023-05-11T14:34:06.686Z,41.46
2023-05-11T14:36:36.273Z,41.50
2023-05-11T14:39:04.615Z,41.48
2023-05-11T14:41:33.675Z,41.40
2023-05-11T14:44:02.025Z,41.27
2023-05-11T14:46:30.582Z,41.30
2023-05-11T14:48:58.815Z,41.40
2023-05-11T14:51:27.260Z,41.28
2023-05-11T14:53:56.027Z,41.19
2023-05-11T14:56:24.398Z,41.14
2023-05-11T14:58:52.956Z,41.11
2023-05-11T15:01:21.703Z,41.14
2023-05-11T15:03:50.917Z,41.13
2023-05-11T15:06:22.498Z,41.10
2023-05-11T15:08:51.510Z,40.99
2023-05-11T15:11:20.026Z,40.93
2023-05-11T15:13:48.716Z,40.95
2023-05-11T15:16:16.787Z,41.04
2023-05-11T15:18:45.930Z,40.94
2023-05-11T15:21:14.001Z,41.04
2023-05-11T15:23:42.479Z,40.89
2023-05-11T15:26:10.928Z,40.93
2023-05-11T15:28:39.342Z,40.96
2023-05-11T15:31:07.708Z,40.94
2023-05-11T15:33:36.505Z,40.86
2023-05-11T15:36:11.267Z,40.92
2023-05-11T15:38:39.774Z,40.83
2023-05-11T15:41:08.493Z,40.72
2023-05-11T15:43:38.326Z,40.66
2023-05-11T15:46:07.549Z,40.54
2023-05-11T15:48:36.336Z,40.59
2023-05-11T15:51:04.771Z,40.47
2023-05-11T15:53:33.088Z,40.42
2023-05-11T15:56:01.061Z,40.34
2023-05-11T15:58:29.475Z,40.31
2023-05-11T16:00:58.758Z,40.22
2023-05-11T16:03:28.639Z,40.28
2023-05-11T16:05:57.557Z,40.13
2023-05-11T16:08:25.859Z,40.01
2023-05-11T16:10:54.352Z,40.07
2023-05-11T16:13:22.486Z,40.06
2023-05-11T16:15:51.734Z,40.08
2023-05-11T16:18:20.296Z,39.94
2023-05-11T16:20:48.778Z,39.83
2023-05-11T16:23:17.098Z,39.86
2023-05-11T16:25:45.524Z,39.72
2023-05-11T16:28:13.858Z,39.65
2023-05-11T16:30:42.275Z,39.71
2023-05-11T16:33:11.140Z,39.58
2023-05-11T16:35:39.192Z,39.54
2023-05-11T16:38:16.279Z,39.56
2023-05-11T16:40:44.720Z,39.72
2023-05-11T16:43:13.142Z,39.74
2023-05-11T16:45:42.279Z,39.71
2023-05-11T16:48:11.423Z,39.71
2023-05-11T16:50:39.803Z,39.61
2023-05-11T16:53:08.800Z,39.62
2023-05-11T16:55:37.079Z,39.42
2023-05-11T16:58:05.589Z,39.47
2023-05-11T17:00:34.480Z,39.44
2023-05-11T17:03:03.107Z,39.57
2023-05-11T17:05:31.600Z,39.53
2023-05-11T17:07:59.953Z,39.42
2023-05-11T17:10:28.425Z,39.47
2023-05-11T17:12:57.795Z,39.44
2023-05-11T17:15:26.803Z,39.28
2023-05-11T17:17:56.469Z,39.35
2023-05-11T17:20:25.952Z,39.17
2023-05-11T17:22:54.317Z,39.13
2023-05-11T17:25:22.793Z,39.33
2023-05-11T17:27:51.604Z,39.29
2023-05-11T17:30:21.935Z,39.13
2023-05-11T17:32:51.189Z,39.13
2023-05-11T17:35:19.746Z,39.17
2023-05-11T17:37:48.242Z,39.00
2023-05-11T17:40:16.884Z,39.08
2023-05-11T17:42:46.056Z,39.06
2023-05-11T17:45:14.514Z,39.05
2023-05-11T17:47:43.719Z,39.12
2023-05-11T17:50:12.159Z,38.86
2023-05-11T17:52:40.550Z,38.91
2023-05-11T17:55:10.931Z,38.80
2023-05-11T17:57:39.691Z,38.73
2023-05-11T18:00:10.059Z,38.76
2023-05-11T18:02:38.615Z,38.66
2023-05-11T18:05:07.250Z,38.62
2023-05-11T18:07:35.748Z,38.60
2023-05-11T18:10:04.221Z,38.72
2023-05-11T18:12:32.640Z,38.85
2023-05-11T18:15:02.807Z,38.91
2023-05-11T18:17:31.508Z,38.78
2023-05-11T18:20:00.012Z,38.85
2023-05-11T18:22:30.894Z,38.57
2023-05-11T18:24:59.256Z,38.78
2023-05-11T18:27:27.256Z,38.89
2023-05-11T18:29:56.229Z,38.98
2023-05-11T18:32:28.094Z,39.00
2023-05-11T18:34:57.029Z,38.97
2023-05-11T18:37:25.992Z,38.92
2023-05-11T18:39:55.551Z,38.96
2023-05-11T18:42:23.638Z,38.92
2023-05-11T18:44:53.507Z,38.85
2023-05-11T18:47:23.089Z,38.85
2023-05-11T18:49:52.154Z,38.91
2023-05-11T18:52:20.824Z,38.98
2023-05-11T18:54:49.660Z,38.89
2023-05-11T18:57:20.243Z,38.90
2023-05-11T18:59:48.582Z,38.91
2023-05-11T19:02:17.344Z,38.87
2023-05-11T19:04:46.363Z,38.77
2023-05-11T19:07:14.447Z,38.82
2023-05-11T19:09:42.848Z,38.84
2023-05-11T19:12:11.276Z,38.80
2023-05-11T19:14:39.809Z,38.80
2023-05-11T19:17:07.952Z,38.81
2023-05-11T19:19:35.930Z,38.94
2023-05-11T19:24:51.642Z,38.89
2023-05-11T19:27:19.421Z,38.92
2023-05-11T19:29:49.643Z,38.65
2023-05-11T19:32:19.231Z,38.66
2023-05-11T19:34:47.295Z,38.68
2023-05-11T19:37:15.267Z,38.78
2023-05-11T19:39:44.053Z,38.69
2023-05-11T19:42:12.391Z,38.85
2023-05-11T19:44:43.573Z,38.71
2023-05-11T19:47:11.981Z,38.70
2023-05-11T19:49:40.081Z,38.67
2023-05-11T19:52:08.150Z,38.66
2023-05-11T19:54:36.120Z,38.68
2023-05-11T19:57:04.810Z,38.63
2023-05-11T19:59:33.227Z,38.62
2023-05-11T20:02:02.352Z,38.64
2023-05-11T20:04:30.786Z,38.65
2023-05-11T20:06:59.175Z,38.88
2023-05-11T20:09:27.191Z,38.99
2023-05-11T20:11:55.027Z,39.08
2023-05-11T20:14:23.283Z,39.27
2023-05-11T20:16:51.165Z,39.34
2023-05-11T20:19:19.056Z,39.45
2023-05-11T20:21:47.019Z,39.60
2023-05-11T20:24:14.853Z,39.70
2023-05-11T20:26:42.836Z,39.63
2023-05-11T20:29:10.685Z,39.81
2023-05-11T20:31:39.104Z,39.80
2023-05-11T20:34:07.309Z,39.92
2023-05-11T20:36:35.497Z,39.97
2023-05-11T20:39:03.467Z,40.04
2023-05-11T20:41:31.627Z,40.14
2023-05-11T20:43:59.603Z,40.12
2023-05-11T20:46:27.451Z,40.13
2023-05-11T20:48:55.546Z,40.18
2023-05-11T20:51:23.482Z,40.17
2023-05-11T20:53:51.767Z,40.12
2023-05-11T20:56:19.623Z,40.25
2023-05-11T20:58:47.844Z,40.19
2023-05-11T21:01:15.645Z,40.25
2023-05-11T21:03:43.555Z,40.19
2023-05-11T21:06:11.438Z,40.15
2023-05-11T21:08:39.339Z,40.23
2023-05-11T21:11:07.225Z,40.19
2023-05-11T21:13:35.097Z,40.22
2023-05-11T21:16:04.199Z,40.30
2023-05-11T21:18:32.813Z,40.36
2023-05-11T21:21:01.339Z,40.40
2023-05-11T21:23:29.712Z,40.48
2023-05-11T21:25:58.338Z,40.49
2023-05-11T21:28:27.107Z,40.68
2023-05-11T21:30:55.203Z,40.73
2023-05-11T21:33:23.595Z,40.83
2023-05-11T21:35:51.570Z,40.79
2023-05-11T21:38:19.442Z,40.90
2023-05-11T21:40:54.781Z,40.89
2023-05-11T21:43:22.664Z,40.94
2023-05-11T21:45:50.917Z,41.05
2023-05-11T21:48:18.910Z,41.13
2023-05-11T21:50:51.367Z,41.14
2023-05-11T21:53:19.239Z,41.14
2023-05-11T21:55:47.111Z,41.19
2023-05-11T21:58:14.914Z,41.13
2023-05-11T22:00:43.012Z,41.20
2023-05-11T22:03:11.055Z,41.21
2023-05-11T22:05:38.947Z,41.20
2023-05-11T22:08:15.025Z,41.23
2023-05-11T22:10:43.725Z,41.30
2023-05-11T22:13:11.743Z,41.41
2023-05-11T22:15:41.340Z,41.39
2023-05-11T22:18:09.572Z,41.41
2023-05-11T22:20:37.529Z,41.43
2023-05-11T22:23:05.367Z,41.53
2023-05-11T22:25:33.752Z,41.58
2023-05-11T22:28:01.552Z,41.69
2023-05-11T22:30:29.347Z,41.71
2023-05-11T22:32:57.185Z,41.77
2023-05-11T22:35:25.813Z,41.77
2023-05-11T22:37:54.452Z,41.90
2023-05-11T22:40:22.196Z,41.97
2023-05-11T22:42:49.982Z,41.92
2023-05-11T22:45:17.709Z,41.93
2023-05-11T22:47:45.570Z,41.98
2023-05-11T22:50:13.697Z,42.08
2023-05-11T22:52:41.695Z,42.10
2023-05-11T22:55:09.762Z,42.15
2023-05-11T22:57:37.848Z,42.09
2023-05-11T23:00:06.085Z,42.20
2023-05-11T23:02:35.955Z,42.25
2023-05-11T23:05:04.774Z,42.17
2023-05-11T23:07:32.774Z,42.26
2023-05-11T23:10:00.598Z,42.21
2023-05-11T23:12:28.368Z,42.33
2023-05-11T23:14:56.203Z,42.36
2023-05-11T23:17:24.179Z,42.42
2023-05-11T23:19:52.042Z,42.43
2023-05-11T23:22:20.251Z,42.49
2023-05-11T23:24:48.021Z,42.54
2023-05-11T23:27:17.231Z,42.61
2023-05-11T23:29:45.096Z,42.65
2023-05-11T23:32:12.890Z,42.58
2023-05-11T23:34:41.018Z,42.69
2023-05-11T23:37:08.845Z,42.71
2023-05-11T23:39:36.789Z,42.77
2023-05-11T23:42:05.298Z,42.86
2023-05-11T23:44:35.332Z,42.79
2023-05-11T23:47:03.220Z,42.89
2023-05-11T23:49:31.002Z,42.97
2023-05-11T23:51:58.830Z,43.04
2023-05-11T23:54:26.688Z,42.94
2023-05-11T23:56:54.568Z,43.10
2023-05-11T23:59:22.334Z,43.20
